Time;durP1;ratioP1;P1;durP2;ratioP2;P2;SDS_P1;SDS_P2;PMS_P1;PMS_P2;Temp;Humidity;BMP_temperature;BMP_pressure;BME280_temperature;BME280_humidity;BME280_pressure;Samples;Min_cycle;Max_cycle;Signal;HPM_P1;HPM_P2
2023/08/07 00:02:08;;;;;;;3.30;1.20;;;;;;;;;;5003113;28;20667;-60
2023/08/07 00:04:34;;;;;;;5.20;1.00;;;;;;;;;;5018252;28;20216;-60
2023/08/07 00:06:59;;;;;;;3.25;1.00;;;;;;;;;;5027200;28;20304;-60
2023/08/07 00:09:24;;;;;;;5.78;1.20;;;;;;;;;;5023214;28;20303;-60
2023/08/07 00:11:50;;;;;;;5.80;1.17;;;;;;;;;;5022232;28;20270;-60
2023/08/07 00:14:15;;;;;;;4.55;1.00;;;;;;;;;;5026115;28;20331;-60
2023/08/07 00:16:41;;;;;;;4.78;1.00;;;;;;;;;;5025906;28;20741;-60
2023/08/07 00:19:06;;;;;;;3.35;1.00;;;;;;;;;;5020202;28;20683;-60
2023/08/07 00:21:31;;;;;;;3.50;1.00;;;;;;;;;;5026429;28;20212;-60
2023/08/07 00:23:57;;;;;;;2.53;0.98;;;;;;;;;;5008575;28;20274;-60
2023/08/07 00:26:22;;;;;;;3.10;0.85;;;;;;;;;;5021067;28;20226;-60
2023/08/07 00:28:47;;;;;;;3.22;0.50;;;;;;;;;;5024805;28;20277;-60
2023/08/07 00:31:13;;;;;;;1.65;0.50;;;;;;;;;;5025738;28;20255;-60
2023/08/07 00:33:38;;;;;;;4.72;0.90;;;;;;;;;;5022010;28;20208;-60
2023/08/07 00:36:03;;;;;;;2.60;0.70;;;;;;;;;;5022875;28;20366;-60
2023/08/07 00:38:29;;;;;;;2.75;0.93;;;;;;;;;;5008531;28;20650;-60
2023/08/07 00:40:54;;;;;;;2.50;0.82;;;;;;;;;;5024721;28;20238;-60
2023/08/07 00:43:19;;;;;;;3.30;0.70;;;;;;;;;;5020388;28;22609;-59
2023/08/07 00:45:46;;;;;;;4.03;1.02;;;;;;;;;;5025151;28;20228;-60
2023/08/07 00:48:11;;;;;;;5.05;1.00;;;;;;;;;;5006775;28;20245;-60
2023/08/07 00:50:37;;;;;;;4.65;0.95;;;;;;;;;;5021161;28;20212;-60
2023/08/07 00:53:02;;;;;;;3.53;0.90;;;;;;;;;;5023156;28;20212;-59
2023/08/07 00:55:28;;;;;;;4.25;0.90;;;;;;;;;;5025436;28;20224;-59
2023/08/07 00:57:54;;;;;;;5.60;1.25;;;;;;;;;;5024080;28;20307;-59
2023/08/07 01:00:20;;;;;;;5.07;1.40;;;;;;;;;;5021000;28;20298;-59
2023/08/07 01:02:47;;;;;;;5.50;1.02;;;;;;;;;;5021971;28;20320;-59
2023/08/07 01:05:12;;;;;;;7.20;1.30;;;;;;;;;;5024310;28;20679;-60
2023/08/07 01:07:37;;;;;;;6.65;1.17;;;;;;;;;;5018717;28;20223;-59
2023/08/07 01:10:03;;;;;;;5.55;1.48;;;;;;;;;;5023287;28;20224;-59
2023/08/07 01:12:30;;;;;;;6.85;1.50;;;;;;;;;;5025046;28;20290;-59
2023/08/07 01:14:56;;;;;;;4.50;1.25;;;;;;;;;;5020835;28;20215;-59
2023/08/07 01:17:22;;;;;;;7.57;1.65;;;;;;;;;;5022577;28;20295;-59
2023/08/07 01:19:48;;;;;;;5.75;1.70;;;;;;;;;;5011873;28;20223;-60
2023/08/07 01:22:14;;;;;;;8.25;2.20;;;;;;;;;;5010215;28;20583;-59
2023/08/07 01:24:40;;;;;;;7.68;1.73;;;;;;;;;;5022962;28;20234;-59
2023/08/07 01:27:10;;;;;;;7.75;1.88;;;;;;;;;;5022805;28;20759;-59
2023/08/07 01:29:37;;;;;;;8.10;1.60;;;;;;;;;;5005553;28;20722;-59
2023/08/07 01:32:03;;;;;;;8.93;1.90;;;;;;;;;;5005712;28;20334;-60
2023/08/07 01:34:28;;;;;;;9.65;2.03;;;;;;;;;;5020387;28;20286;-60
2023/08/07 01:36:53;;;;;;;6.78;1.80;;;;;;;;;;5006592;28;20223;-59
2023/08/07 01:39:19;;;;;;;8.23;1.80;;;;;;;;;;5023403;28;20310;-59
2023/08/07 01:41:44;;;;;;;7.68;1.92;;;;;;;;;;5002746;28;20216;-59
2023/08/07 01:44:09;;;;;;;10.10;2.13;;;;;;;;;;5004004;28;20219;-60
2023/08/07 01:46:34;;;;;;;8.15;2.40;;;;;;;;;;5024624;28;20222;-60
2023/08/07 01:49:00;;;;;;;14.77;2.75;;;;;;;;;;5020331;28;20219;-60
2023/08/07 01:51:25;;;;;;;11.25;2.30;;;;;;;;;;5021591;28;20238;-60
2023/08/07 01:53:50;;;;;;;8.80;2.17;;;;;;;;;;5024878;28;20231;-60
2023/08/07 01:56:16;;;;;;;10.90;2.22;;;;;;;;;;5022767;28;20234;-60
2023/08/07 01:58:41;;;;;;;9.30;2.05;;;;;;;;;;5020133;28;20683;-59
2023/08/07 02:01:06;;;;;;;12.38;2.10;;;;;;;;;;5024089;28;20270;-59
2023/08/07 02:03:32;;;;;;;13.07;2.47;;;;;;;;;;5024329;28;20214;-60
2023/08/07 02:05:57;;;;;;;8.35;2.45;;;;;;;;;;5020528;28;20730;-60
2023/08/07 02:08:22;;;;;;;9.75;2.33;;;;;;;;;;5021897;28;20224;-60
2023/08/07 02:10:48;;;;;;;11.80;2.53;;;;;;;;;;5023680;28;20227;-59
2023/08/07 02:13:13;;;;;;;10.77;2.47;;;;;;;;;;5016733;28;20217;-60
2023/08/07 02:15:38;;;;;;;8.35;2.28;;;;;;;;;;5008968;28;20217;-60
2023/08/07 02:18:03;;;;;;;9.50;2.60;;;;;;;;;;4987975;28;20219;-60
2023/08/07 02:20:29;;;;;;;12.25;2.47;;;;;;;;;;4989984;28;20257;-60
2023/08/07 02:22:54;;;;;;;7.72;2.45;;;;;;;;;;4993096;28;20287;-60
2023/08/07 02:25:19;;;;;;;8.65;2.38;;;;;;;;;;4979553;28;20223;-60
2023/08/07 02:27:45;;;;;;;8.75;2.38;;;;;;;;;;4981296;28;20556;-60
2023/08/07 02:30:10;;;;;;;12.80;2.90;;;;;;;;;;4983100;28;20223;-59
2023/08/07 02:32:35;;;;;;;10.25;2.83;;;;;;;;;;4985650;28;20296;-60
2023/08/07 02:35:01;;;;;;;11.95;3.38;;;;;;;;;;4987686;28;20225;-60
2023/08/07 02:37:26;;;;;;;11.10;3.33;;;;;;;;;;4971298;28;20217;-60
2023/08/07 02:39:53;;;;;;;13.57;3.17;;;;;;;;;;4991562;28;20307;-60
2023/08/07 02:42:18;;;;;;;14.05;2.90;;;;;;;;;;4986641;28;20764;-60
2023/08/07 02:44:44;;;;;;;12.20;3.90;;;;;;;;;;4988750;28;20299;-60
2023/08/07 02:47:09;;;;;;;5.93;2.20;;;;;;;;;;4990095;28;20214;-60
2023/08/07 02:49:34;;;;;;;9.85;2.40;;;;;;;;;;4982689;28;20223;-59
2023/08/07 02:52:00;;;;;;;11.40;2.42;;;;;;;;;;4982027;28;20227;-60
2023/08/07 02:54:25;;;;;;;10.60;2.55;;;;;;;;;;4989570;28;20650;-59
2023/08/07 02:56:50;;;;;;;9.40;2.15;;;;;;;;;;4993873;28;20216;-60
2023/08/07 02:59:16;;;;;;;11.35;2.35;;;;;;;;;;4991351;28;20218;-60
2023/08/07 03:01:42;;;;;;;11.13;2.20;;;;;;;;;;4993945;28;20221;-59
2023/08/07 03:04:07;;;;;;;8.68;2.00;;;;;;;;;;4993682;28;20208;-59
2023/08/07 03:06:32;;;;;;;8.43;2.42;;;;;;;;;;4991337;28;20223;-59
2023/08/07 03:08:58;;;;;;;13.45;2.70;;;;;;;;;;4989212;28;20727;-59
2023/08/07 03:11:23;;;;;;;11.07;2.40;;;;;;;;;;4989190;28;20643;-60
2023/08/07 03:13:49;;;;;;;10.07;2.70;;;;;;;;;;4983648;28;20209;-60
2023/08/07 03:16:14;;;;;;;9.18;2.30;;;;;;;;;;4979546;28;20225;-59
2023/08/07 03:18:40;;;;;;;13.65;2.70;;;;;;;;;;4986122;28;20216;-60
2023/08/07 03:21:05;;;;;;;11.35;2.80;;;;;;;;;;4999210;28;20208;-59
2023/08/07 03:23:30;;;;;;;11.02;2.72;;;;;;;;;;5014140;28;20287;-60
2023/08/07 03:26:02;;;;;;;9.00;2.90;;;;;;;;;;5014144;28;20247;-60
2023/08/07 03:28:28;;;;;;;9.38;2.70;;;;;;;;;;5012987;28;20208;-60
2023/08/07 03:30:53;;;;;;;11.20;2.70;;;;;;;;;;5013918;28;20243;-60
2023/08/07 03:33:18;;;;;;;9.85;2.60;;;;;;;;;;5013466;28;20216;-60
2023/08/07 03:35:45;;;;;;;7.97;2.55;;;;;;;;;;5013386;28;20211;-60
2023/08/07 03:38:10;;;;;;;8.60;2.38;;;;;;;;;;5013676;28;20219;-60
2023/08/07 03:40:36;;;;;;;9.73;2.10;;;;;;;;;;5014151;28;20220;-60
2023/08/07 03:43:01;;;;;;;10.50;2.42;;;;;;;;;;5012515;28;20228;-60
2023/08/07 03:45:26;;;;;;;6.38;2.30;;;;;;;;;;5013712;28;20577;-60
2023/08/07 03:47:52;;;;;;;8.45;2.67;;;;;;;;;;5013949;28;20351;-60
2023/08/07 03:50:17;;;;;;;9.85;2.40;;;;;;;;;;5012625;28;20307;-60
2023/08/07 03:52:42;;;;;;;7.63;2.20;;;;;;;;;;5013727;28;20222;-60
2023/08/07 03:55:08;;;;;;;7.43;2.40;;;;;;;;;;4999829;28;20578;-60
2023/08/07 03:57:33;;;;;;;6.93;2.47;;;;;;;;;;4983443;28;20668;-60
2023/08/07 03:59:59;;;;;;;10.70;2.58;;;;;;;;;;4983990;28;20591;-60
2023/08/07 04:02:25;;;;;;;6.88;2.80;;;;;;;;;;4983778;28;20571;-61
2023/08/07 04:04:50;;;;;;;10.43;2.67;;;;;;;;;;4983385;28;20231;-61
2023/08/07 04:07:15;;;;;;;10.55;2.60;;;;;;;;;;4981298;28;20217;-61
2023/08/07 04:09:41;;;;;;;9.23;2.30;;;;;;;;;;4975842;28;20217;-61
2023/08/07 04:12:06;;;;;;;11.73;2.40;;;;;;;;;;4975659;28;20720;-61
2023/08/07 04:14:32;;;;;;;9.27;2.33;;;;;;;;;;4977857;28;20260;-60
2023/08/07 04:16:58;;;;;;;10.38;2.40;;;;;;;;;;4983510;28;20209;-60
2023/08/07 04:19:23;;;;;;;13.95;2.75;;;;;;;;;;4983521;28;20266;-60
2023/08/07 04:21:49;;;;;;;9.10;2.50;;;;;;;;;;4983718;28;20210;-60
2023/08/07 04:24:14;;;;;;;6.30;2.10;;;;;;;;;;4982840;28;20228;-59
2023/08/07 04:26:39;;;;;;;9.68;2.10;;;;;;;;;;4983801;28;20255;-60
2023/08/07 04:29:05;;;;;;;7.97;2.10;;;;;;;;;;4999154;28;20205;-60
2023/08/07 04:31:31;;;;;;;8.50;2.30;;;;;;;;;;4980419;28;20238;-60
2023/08/07 04:33:57;;;;;;;9.70;2.45;;;;;;;;;;4980724;28;20227;-60
2023/08/07 04:36:22;;;;;;;5.32;1.83;;;;;;;;;;4985158;28;20225;-60
2023/08/07 04:38:48;;;;;;;9.50;2.03;;;;;;;;;;4990042;28;20267;-60
2023/08/07 04:41:13;;;;;;;7.80;2.00;;;;;;;;;;4990095;28;20308;-60
2023/08/07 04:43:38;;;;;;;8.77;2.08;;;;;;;;;;4993992;28;20387;-60
2023/08/07 04:46:04;;;;;;;8.82;2.10;;;;;;;;;;4989348;28;20215;-60
2023/08/07 04:48:29;;;;;;;6.53;1.98;;;;;;;;;;4990645;28;20216;-60
2023/08/07 04:50:55;;;;;;;6.30;2.10;;;;;;;;;;4990861;28;20231;-59
2023/08/07 04:53:20;;;;;;;8.32;2.08;;;;;;;;;;4985307;28;20223;-60
2023/08/07 04:55:46;;;;;;;7.55;2.10;;;;;;;;;;4982565;28;20204;-60
2023/08/07 04:58:11;;;;;;;10.25;2.20;;;;;;;;;;4982799;28;20703;-61
2023/08/07 05:00:36;;;;;;;8.38;1.98;;;;;;;;;;4988662;28;20236;-60
2023/08/07 05:03:02;;;;;;;15.35;2.10;;;;;;;;;;4987609;28;20687;-60
2023/08/07 05:05:27;;;;;;;16.10;2.25;;;;;;;;;;5002540;28;20991;-60
2023/08/07 05:07:54;;;;;;;5.45;1.58;;;;;;;;;;4994084;28;20292;-60
2023/08/07 05:10:19;;;;;;;6.78;1.80;;;;;;;;;;4987256;28;20229;-60
2023/08/07 05:12:45;;;;;;;6.63;1.83;;;;;;;;;;4990251;28;20287;-61
2023/08/07 05:15:10;;;;;;;7.95;2.25;;;;;;;;;;4986636;28;20282;-62
2023/08/07 05:17:35;;;;;;;7.22;1.70;;;;;;;;;;4982298;28;20573;-60
2023/08/07 05:20:01;;;;;;;5.30;2.08;;;;;;;;;;4981604;28;20590;-60
2023/08/07 05:22:26;;;;;;;11.02;2.47;;;;;;;;;;4987405;28;20504;-59
2023/08/07 05:24:51;;;;;;;5.80;2.10;;;;;;;;;;4990149;28;20221;-60
2023/08/07 05:27:16;;;;;;;9.43;2.03;;;;;;;;;;4988987;28;20287;-61
2023/08/07 05:29:43;;;;;;;7.47;2.20;;;;;;;;;;4991512;28;20464;-60
2023/08/07 05:32:10;;;;;;;11.07;2.40;;;;;;;;;;4990655;28;20301;-61
2023/08/07 05:34:35;;;;;;;9.68;2.33;;;;;;;;;;5001711;28;21174;-61
2023/08/07 05:37:00;;;;;;;13.23;2.75;;;;;;;;;;4983258;28;20737;-60
2023/08/07 05:39:26;;;;;;;11.45;3.00;;;;;;;;;;4994728;28;20231;-60
2023/08/07 05:41:53;;;;;;;7.55;2.58;;;;;;;;;;4993055;28;20508;-60
2023/08/07 05:44:19;;;;;;;9.00;2.63;;;;;;;;;;4979286;28;20227;-60
2023/08/07 05:46:44;;;;;;;12.10;3.05;;;;;;;;;;4982383;28;20732;-61
2023/08/07 05:49:09;;;;;;;13.63;2.72;;;;;;;;;;4981513;28;20213;-60
2023/08/07 05:51:34;;;;;;;11.35;2.85;;;;;;;;;;4982217;28;20700;-61
2023/08/07 05:54:00;;;;;;;13.27;2.97;;;;;;;;;;4964738;28;20225;-60
2023/08/07 05:56:25;;;;;;;14.98;3.17;;;;;;;;;;4981049;28;20205;-60
2023/08/07 05:58:50;;;;;;;11.38;3.17;;;;;;;;;;4981933;28;20231;-60
2023/08/07 06:01:17;;;;;;;10.30;2.72;;;;;;;;;;4976762;28;20685;-61
2023/08/07 06:03:42;;;;;;;11.07;2.85;;;;;;;;;;4973244;28;20315;-60
2023/08/07 06:06:08;;;;;;;10.68;2.97;;;;;;;;;;4973697;28;20278;-60
2023/08/07 06:08:34;;;;;;;11.70;3.08;;;;;;;;;;4979666;28;20676;-60
2023/08/07 06:11:03;;;;;;;15.70;3.58;;;;;;;;;;4977529;28;20241;-60
2023/08/07 06:13:28;;;;;;;14.00;3.85;;;;;;;;;;4994617;28;20209;-60
2023/08/07 06:15:54;;;;;;;15.68;3.20;;;;;;;;;;5000877;28;20212;-59
2023/08/07 06:18:19;;;;;;;11.98;3.35;;;;;;;;;;4990157;28;20582;-59
2023/08/07 06:20:45;;;;;;;10.25;3.40;;;;;;;;;;4991602;28;20212;-59
2023/08/07 06:23:10;;;;;;;10.70;3.42;;;;;;;;;;4991065;28;20213;-59
2023/08/07 06:25:35;;;;;;;11.05;3.00;;;;;;;;;;5006987;28;20287;-59
2023/08/07 06:28:01;;;;;;;18.38;3.88;;;;;;;;;;5010499;28;20220;-59
2023/08/07 06:30:26;;;;;;;14.60;3.53;;;;;;;;;;5010066;28;20212;-59
2023/08/07 06:32:51;;;;;;;12.85;3.45;;;;;;;;;;5010932;28;20212;-59
2023/08/07 06:35:17;;;;;;;89.57;7.57;;;;;;;;;;5010674;28;20216;-59
2023/08/07 06:37:42;;;;;;;11.85;3.75;;;;;;;;;;5010465;28;20215;-60
2023/08/07 06:40:07;;;;;;;12.38;3.08;;;;;;;;;;5010457;28;20212;-60
2023/08/07 06:42:33;;;;;;;20.60;3.67;;;;;;;;;;5010817;28;20224;-60
2023/08/07 06:44:58;;;;;;;17.58;3.60;;;;;;;;;;5010062;28;20212;-60
2023/08/07 06:47:23;;;;;;;11.82;3.58;;;;;;;;;;5010563;28;20266;-61
2023/08/07 06:49:49;;;;;;;10.25;3.05;;;;;;;;;;4993550;28;20295;-60
2023/08/07 06:52:14;;;;;;;10.85;3.35;;;;;;;;;;5009558;28;20244;-60
2023/08/07 06:54:40;;;;;;;20.45;4.30;;;;;;;;;;5011010;28;20258;-60
2023/08/07 06:57:05;;;;;;;14.23;3.10;;;;;;;;;;5010669;28;20624;-60
2023/08/07 06:59:30;;;;;;;14.05;3.45;;;;;;;;;;5009817;28;20622;-60
2023/08/07 07:01:56;;;;;;;28.40;5.18;;;;;;;;;;5010938;28;20287;-60
2023/08/07 07:04:21;;;;;;;14.57;3.78;;;;;;;;;;5010134;28;20231;-59
2023/08/07 07:06:46;;;;;;;12.65;4.00;;;;;;;;;;5010257;28;20234;-59
2023/08/07 07:09:15;;;;;;;15.23;4.18;;;;;;;;;;5010691;28;20220;-59
2023/08/07 07:11:41;;;;;;;33.90;5.15;;;;;;;;;;5010749;28;20518;-60
2023/08/07 07:14:06;;;;;;;14.60;3.60;;;;;;;;;;5007397;28;20212;-60
2023/08/07 07:16:32;;;;;;;13.68;3.47;;;;;;;;;;5015949;28;20212;-59
2023/08/07 07:18:58;;;;;;;13.43;3.47;;;;;;;;;;5018952;28;20238;-60
2023/08/07 07:21:23;;;;;;;16.02;3.55;;;;;;;;;;5019561;28;20220;-59
2023/08/07 07:23:48;;;;;;;16.85;4.43;;;;;;;;;;5016977;28;20209;-59
2023/08/07 07:26:14;;;;;;;10.52;3.47;;;;;;;;;;5020284;28;20237;-59
2023/08/07 07:28:39;;;;;;;20.17;4.07;;;;;;;;;;5022729;28;20310;-59
2023/08/07 07:31:05;;;;;;;15.55;3.30;;;;;;;;;;5018391;28;20641;-59
2023/08/07 07:33:30;;;;;;;15.95;3.80;;;;;;;;;;5026692;28;20212;-59
2023/08/07 07:35:56;;;;;;;12.05;3.35;;;;;;;;;;5026686;28;20266;-59
2023/08/07 07:38:22;;;;;;;16.25;3.63;;;;;;;;;;5022928;28;20715;-59
2023/08/07 07:40:47;;;;;;;17.35;4.00;;;;;;;;;;5024005;28;20693;-59
2023/08/07 07:43:12;;;;;;;14.32;3.30;;;;;;;;;;5026107;28;20222;-60
2023/08/07 07:45:38;;;;;;;14.48;3.40;;;;;;;;;;5026297;28;20588;-60
2023/08/07 07:48:03;;;;;;;19.23;3.70;;;;;;;;;;5020371;28;20227;-59
2023/08/07 07:50:28;;;;;;;12.93;3.15;;;;;;;;;;5026543;28;20224;-59
2023/08/07 07:52:54;;;;;;;15.00;3.63;;;;;;;;;;5026760;28;20259;-59
2023/08/07 07:55:19;;;;;;;25.05;4.13;;;;;;;;;;5002244;28;20212;-60
2023/08/07 07:57:45;;;;;;;10.15;3.08;;;;;;;;;;5025763;28;20214;-60
2023/08/07 08:00:12;;;;;;;22.70;3.80;;;;;;;;;;5026108;28;20207;-60
2023/08/07 08:02:38;;;;;;;17.65;3.58;;;;;;;;;;5023671;28;20216;-60
2023/08/07 08:05:03;;;;;;;11.40;3.42;;;;;;;;;;5022214;28;20212;-60
2023/08/07 08:07:29;;;;;;;11.93;3.17;;;;;;;;;;5026369;28;20688;-59
2023/08/07 08:09:54;;;;;;;12.68;3.03;;;;;;;;;;5025246;28;20225;-59
2023/08/07 08:12:21;;;;;;;20.42;3.50;;;;;;;;;;5021080;28;20235;-59
2023/08/07 08:14:46;;;;;;;13.15;3.08;;;;;;;;;;5026127;28;20219;-60
2023/08/07 08:17:12;;;;;;;12.20;3.03;;;;;;;;;;5024108;28;20218;-60
2023/08/07 08:19:37;;;;;;;18.42;3.75;;;;;;;;;;5021076;28;20216;-60
2023/08/07 08:22:02;;;;;;;95.05;9.60;;;;;;;;;;5022647;28;20690;-60
2023/08/07 08:24:28;;;;;;;11.15;2.90;;;;;;;;;;5018211;28;20696;-60
2023/08/07 08:26:53;;;;;;;11.35;3.03;;;;;;;;;;5011993;28;20593;-60
2023/08/07 08:29:18;;;;;;;8.10;2.90;;;;;;;;;;5013545;28;20623;-60
2023/08/07 08:31:43;;;;;;;15.50;3.40;;;;;;;;;;5014605;28;20598;-60
2023/08/07 08:34:09;;;;;;;12.45;3.13;;;;;;;;;;5025429;28;20212;-60
2023/08/07 08:36:34;;;;;;;15.57;3.50;;;;;;;;;;5021234;28;20200;-60
2023/08/07 08:39:00;;;;;;;27.35;4.38;;;;;;;;;;5022338;28;20224;-60
2023/08/07 08:41:25;;;;;;;12.60;3.05;;;;;;;;;;5024481;28;20208;-60
2023/08/07 08:43:52;;;;;;;16.40;3.65;;;;;;;;;;5020954;28;20223;-60
2023/08/07 08:46:18;;;;;;;24.88;3.75;;;;;;;;;;5005310;28;20235;-60
2023/08/07 08:48:44;;;;;;;53.95;5.95;;;;;;;;;;5006943;28;20211;-59
2023/08/07 08:51:11;;;;;;;18.35;3.38;;;;;;;;;;5005518;28;20272;-59
2023/08/07 08:53:36;;;;;;;15.57;3.70;;;;;;;;;;5003830;28;20311;-59
2023/08/07 08:56:01;;;;;;;15.98;2.95;;;;;;;;;;5025120;28;20896;-60
2023/08/07 08:58:28;;;;;;;13.63;2.95;;;;;;;;;;5006877;28;20220;-60
2023/08/07 09:00:53;;;;;;;12.70;3.35;;;;;;;;;;5001364;28;20220;-60
2023/08/07 09:03:19;;;;;;;13.75;2.88;;;;;;;;;;5012732;28;20342;-60
2023/08/07 09:05:44;;;;;;;15.02;3.38;;;;;;;;;;5025037;28;21339;-60
2023/08/07 09:08:09;;;;;;;18.55;3.58;;;;;;;;;;5021929;28;20272;-59
2023/08/07 09:10:35;;;;;;;19.17;3.58;;;;;;;;;;5022535;28;20701;-60
2023/08/07 09:13:03;;;;;;;10.35;3.03;;;;;;;;;;5023910;28;20278;-60
2023/08/07 09:15:29;;;;;;;12.38;3.30;;;;;;;;;;5025424;28;20680;-60
2023/08/07 09:17:55;;;;;;;12.93;3.53;;;;;;;;;;5020360;28;20218;-60
2023/08/07 09:20:21;;;;;;;12.70;3.17;;;;;;;;;;5006953;28;20220;-60
2023/08/07 09:22:46;;;;;;;10.77;3.20;;;;;;;;;;5025177;28;20288;-60
2023/08/07 09:25:11;;;;;;;14.63;3.10;;;;;;;;;;5021389;28;20216;-60
2023/08/07 09:27:37;;;;;;;10.32;3.13;;;;;;;;;;5019448;28;20213;-60
2023/08/07 09:30:02;;;;;;;9.82;2.95;;;;;;;;;;5019077;28;20696;-60
2023/08/07 09:32:28;;;;;;;12.43;2.92;;;;;;;;;;5023258;28;20679;-60
2023/08/07 09:34:53;;;;;;;11.93;2.97;;;;;;;;;;5020550;28;20217;-60
2023/08/07 09:37:18;;;;;;;18.63;3.40;;;;;;;;;;5024193;28;20218;-60
2023/08/07 09:39:44;;;;;;;10.85;3.03;;;;;;;;;;5024551;28;20219;-60
2023/08/07 09:42:15;;;;;;;12.38;2.53;;;;;;;;;;5018842;28;20205;-60
2023/08/07 09:44:41;;;;;;;8.95;2.28;;;;;;;;;;5018739;28;20238;-60
2023/08/07 09:47:13;;;;;;;12.68;2.65;;;;;;;;;;5009521;28;20251;-60
2023/08/07 09:49:39;;;;;;;11.98;2.55;;;;;;;;;;5014952;28;20237;-60
2023/08/07 09:52:06;;;;;;;11.68;2.67;;;;;;;;;;5022473;28;20227;-60
2023/08/07 09:54:32;;;;;;;20.17;3.38;;;;;;;;;;5019658;28;20298;-60
2023/08/07 09:56:57;;;;;;;14.25;2.95;;;;;;;;;;5024554;28;20231;-60
2023/08/07 09:59:22;;;;;;;11.75;2.67;;;;;;;;;;5023259;28;20383;-60
2023/08/07 10:01:48;;;;;;;11.18;2.80;;;;;;;;;;5018985;28;20200;-60
2023/08/07 10:04:15;;;;;;;11.73;2.42;;;;;;;;;;5023598;28;20211;-60
2023/08/07 10:06:41;;;;;;;63.67;6.07;;;;;;;;;;5024179;28;20750;-60
2023/08/07 10:09:07;;;;;;;18.52;2.95;;;;;;;;;;5002739;28;20299;-60
2023/08/07 10:11:32;;;;;;;10.88;2.40;;;;;;;;;;5020770;28;20699;-60
2023/08/07 10:13:58;;;;;;;13.43;2.55;;;;;;;;;;5023834;28;20683;-59
2023/08/07 10:16:24;;;;;;;10.70;2.10;;;;;;;;;;5021447;28;20664;-59
2023/08/07 10:18:49;;;;;;;9.55;1.92;;;;;;;;;;5019924;28;20238;-60
2023/08/07 10:21:14;;;;;;;11.73;2.35;;;;;;;;;;5024118;28;20263;-60
2023/08/07 10:23:40;;;;;;;14.40;2.20;;;;;;;;;;5010530;28;20295;-60
2023/08/07 10:26:06;;;;;;;7.22;2.00;;;;;;;;;;4999908;28;20599;-60
2023/08/07 10:28:32;;;;;;;10.38;2.60;;;;;;;;;;4997259;28;20212;-59
2023/08/07 10:30:57;;;;;;;7.35;1.80;;;;;;;;;;5022748;28;20277;-59
2023/08/07 10:33:24;;;;;;;6.85;1.80;;;;;;;;;;4987927;28;20659;-60
2023/08/07 10:35:50;;;;;;;6.10;1.80;;;;;;;;;;5003264;28;20588;-60
2023/08/07 10:38:16;;;;;;;9.10;2.00;;;;;;;;;;4997122;28;20239;-59
2023/08/07 10:41:01;;;;;;;10.02;2.22;;;;;;;;;;5006337;28;20239;-59
2023/08/07 10:43:27;;;;;;;9.93;2.30;;;;;;;;;;5019734;28;20204;-59
2023/08/07 10:45:53;;;;;;;19.02;3.20;;;;;;;;;;5021762;28;20216;-60
2023/08/07 10:48:19;;;;;;;10.55;2.35;;;;;;;;;;5016616;28;20222;-60
2023/08/07 10:50:52;;;;;;;9.85;2.25;;;;;;;;;;5021161;28;20655;-59
2023/08/07 10:53:19;;;;;;;13.57;2.60;;;;;;;;;;5017887;28;20698;-60
2023/08/07 10:55:45;;;;;;;9.32;2.10;;;;;;;;;;5024160;28;20212;-59
2023/08/07 10:58:23;;;;;;;6.25;2.25;;;;;;;;;;5021943;28;20235;-60
2023/08/07 11:00:49;;;;;;;11.82;2.40;;;;;;;;;;5020471;28;20200;-59
2023/08/07 11:03:20;;;;;;;7.68;2.78;;;;;;;;;;5020966;28;20212;-60
2023/08/07 11:05:45;;;;;;;7.30;2.30;;;;;;;;;;5023210;28;20735;-60
2023/08/07 11:08:11;;;;;;;9.35;2.10;;;;;;;;;;5009577;28;20216;-59
2023/08/07 11:10:36;;;;;;;8.00;2.08;;;;;;;;;;5004649;28;20587;-59
2023/08/07 11:13:02;;;;;;;11.00;2.38;;;;;;;;;;5026049;28;20212;-59
2023/08/07 11:15:27;;;;;;;10.05;2.58;;;;;;;;;;5027506;28;20223;-59
2023/08/07 11:17:53;;;;;;;12.65;2.60;;;;;;;;;;5024080;28;20212;-59
2023/08/07 11:20:19;;;;;;;9.18;2.35;;;;;;;;;;5024870;28;20566;-59
2023/08/07 11:22:44;;;;;;;19.95;2.83;;;;;;;;;;5009978;28;20709;-60
2023/08/07 11:25:11;;;;;;;19.70;3.00;;;;;;;;;;5025475;28;20790;-60
2023/08/07 11:27:36;;;;;;;12.70;2.75;;;;;;;;;;5004084;28;20222;-59
2023/08/07 11:30:02;;;;;;;9.77;2.30;;;;;;;;;;5024228;28;20244;-59
2023/08/07 11:32:28;;;;;;;10.93;2.38;;;;;;;;;;5027286;28;20338;-59
2023/08/07 11:34:53;;;;;;;9.30;2.20;;;;;;;;;;5020078;28;20302;-59
2023/08/07 11:37:18;;;;;;;7.82;2.25;;;;;;;;;;5023900;28;20689;-59
2023/08/07 11:39:44;;;;;;;9.05;2.50;;;;;;;;;;5026870;28;20224;-59
2023/08/07 11:42:09;;;;;;;9.05;2.15;;;;;;;;;;5023282;28;20702;-59
2023/08/07 11:44:34;;;;;;;11.85;2.40;;;;;;;;;;5021326;28;20215;-59
2023/08/07 11:47:00;;;;;;;7.72;2.38;;;;;;;;;;5012192;28;20270;-59
2023/08/07 11:49:25;;;;;;;15.35;2.63;;;;;;;;;;5016886;28;20227;-59
2023/08/07 11:51:51;;;;;;;9.93;2.63;;;;;;;;;;5017760;28;20283;-59
2023/08/07 11:54:16;;;;;;;11.50;2.53;;;;;;;;;;5012617;28;20262;-59
2023/08/07 11:56:42;;;;;;;12.95;2.38;;;;;;;;;;4992940;28;20213;-60
2023/08/07 11:59:08;;;;;;;8.05;2.30;;;;;;;;;;5018357;28;20219;-59
2023/08/07 12:01:36;;;;;;;13.63;2.60;;;;;;;;;;5015726;28;20208;-59
2023/08/07 12:04:05;;;;;;;7.90;2.50;;;;;;;;;;5013165;28;20318;-59
2023/08/07 12:06:30;;;;;;;19.05;2.92;;;;;;;;;;5013837;28;20307;-59
2023/08/07 12:08:56;;;;;;;15.40;2.72;;;;;;;;;;5013474;28;20338;-59
2023/08/07 12:11:21;;;;;;;10.23;2.83;;;;;;;;;;5013733;28;20252;-60
2023/08/07 12:13:46;;;;;;;8.50;2.67;;;;;;;;;;5016824;28;20707;-60
2023/08/07 12:16:18;;;;;;;9.77;2.65;;;;;;;;;;5018514;28;20754;-60
2023/08/07 12:18:46;;;;;;;9.00;2.38;;;;;;;;;;5025007;28;20688;-60
2023/08/07 12:21:12;;;;;;;7.90;2.60;;;;;;;;;;5026093;28;20679;-59
2023/08/07 12:23:38;;;;;;;9.88;2.40;;;;;;;;;;5022277;28;20207;-59
2023/08/07 12:26:03;;;;;;;11.57;3.10;;;;;;;;;;5021168;28;20211;-59
2023/08/07 12:28:29;;;;;;;11.43;2.85;;;;;;;;;;5008062;28;20200;-60
2023/08/07 12:30:54;;;;;;;11.70;3.05;;;;;;;;;;5018223;28;20370;-60
2023/08/07 12:33:19;;;;;;;19.33;3.10;;;;;;;;;;5019690;28;20208;-60
2023/08/07 12:35:45;;;;;;;15.55;2.97;;;;;;;;;;5025414;28;20391;-60
2023/08/07 12:38:10;;;;;;;101.85;7.55;;;;;;;;;;5022723;28;20234;-60
2023/08/07 12:40:36;;;;;;;16.38;2.83;;;;;;;;;;5022272;28;20347;-60
2023/08/07 12:43:02;;;;;;;18.65;3.10;;;;;;;;;;5022789;28;20231;-60
2023/08/07 12:45:27;;;;;;;8.55;2.30;;;;;;;;;;5025510;28;20594;-60
2023/08/07 12:47:52;;;;;;;8.73;2.25;;;;;;;;;;5023836;28;20224;-60
2023/08/07 12:50:18;;;;;;;11.05;2.35;;;;;;;;;;5021466;28;20212;-59
2023/08/07 12:52:43;;;;;;;7.18;2.08;;;;;;;;;;5025573;28;20216;-60
2023/08/07 12:55:09;;;;;;;10.93;2.80;;;;;;;;;;5024110;28;20730;-60
2023/08/07 12:57:35;;;;;;;9.88;2.40;;;;;;;;;;5019294;28;20210;-59
2023/08/07 13:00:00;;;;;;;7.47;2.30;;;;;;;;;;5008757;28;20216;-60
2023/08/07 13:02:25;;;;;;;137.20;10.88;;;;;;;;;;5025229;28;20219;-59
2023/08/07 13:04:51;;;;;;;10.30;2.50;;;;;;;;;;5019590;28;20295;-59
2023/08/07 13:07:17;;;;;;;7.53;2.33;;;;;;;;;;5023338;28;20285;-59
2023/08/07 13:09:43;;;;;;;8.93;2.38;;;;;;;;;;5007244;28;20290;-59
2023/08/07 13:12:08;;;;;;;10.30;2.42;;;;;;;;;;5021154;28;20314;-59
2023/08/07 13:14:34;;;;;;;9.07;2.40;;;;;;;;;;5021608;28;20212;-59
2023/08/07 13:16:59;;;;;;;10.60;2.20;;;;;;;;;;5025344;28;20248;-59
2023/08/07 13:19:24;;;;;;;13.10;2.45;;;;;;;;;;5008205;28;20348;-59
2023/08/07 13:21:50;;;;;;;6.03;2.20;;;;;;;;;;5018844;28;20212;-59
2023/08/07 13:24:15;;;;;;;5.90;1.80;;;;;;;;;;5024268;28;20212;-59
2023/08/07 13:26:44;;;;;;;6.88;1.98;;;;;;;;;;5019501;28;20223;-60
2023/08/07 13:29:15;;;;;;;15.70;2.58;;;;;;;;;;5017947;28;20266;-59
2023/08/07 13:31:43;;;;;;;9.68;1.85;;;;;;;;;;5013007;28;20688;-60
2023/08/07 13:34:10;;;;;;;14.27;2.40;;;;;;;;;;4996918;28;20487;-59
2023/08/07 13:36:36;;;;;;;13.80;2.60;;;;;;;;;;4997798;28;20875;-60
2023/08/07 13:39:01;;;;;;;20.00;3.17;;;;;;;;;;4999428;28;20739;-60
2023/08/07 13:41:27;;;;;;;11.13;2.35;;;;;;;;;;5003623;28;20278;-59
2023/08/07 13:43:52;;;;;;;14.05;2.75;;;;;;;;;;5006368;28;20462;-59
2023/08/07 13:46:18;;;;;;;14.68;2.67;;;;;;;;;;5005862;28;20609;-59
2023/08/07 13:48:44;;;;;;;8.55;2.25;;;;;;;;;;5005681;28;20259;-59
2023/08/07 13:51:09;;;;;;;7.05;2.08;;;;;;;;;;5005880;28;20224;-59
2023/08/07 13:53:35;;;;;;;6.53;2.23;;;;;;;;;;5002330;28;20807;-59
2023/08/07 13:56:00;;;;;;;7.50;2.00;;;;;;;;;;5000618;28;21089;-59
2023/08/07 13:58:25;;;;;;;5.95;2.20;;;;;;;;;;4997965;28;20223;-59
2023/08/07 14:00:51;;;;;;;5.72;1.85;;;;;;;;;;4997538;28;20235;-59
2023/08/07 14:03:16;;;;;;;6.90;2.00;;;;;;;;;;5002418;28;20225;-59
2023/08/07 14:05:42;;;;;;;6.47;1.85;;;;;;;;;;5006113;28;20223;-59
2023/08/07 14:08:09;;;;;;;5.53;1.83;;;;;;;;;;5004441;28;20218;-59
2023/08/07 14:10:36;;;;;;;6.13;1.88;;;;;;;;;;5004656;28;20219;-59
2023/08/07 14:13:01;;;;;;;6.60;2.00;;;;;;;;;;5004832;28;20247;-59
2023/08/07 14:15:27;;;;;;;8.82;2.08;;;;;;;;;;5003009;28;20378;-59
2023/08/07 14:17:53;;;;;;;6.18;1.92;;;;;;;;;;5002749;28;20219;-59
2023/08/07 14:20:18;;;;;;;6.22;1.95;;;;;;;;;;4996342;28;20252;-59
2023/08/07 14:22:43;;;;;;;16.10;2.33;;;;;;;;;;4995621;28;20532;-59
2023/08/07 14:25:09;;;;;;;6.88;1.95;;;;;;;;;;4998411;28;20216;-59
2023/08/07 14:27:34;;;;;;;6.45;1.70;;;;;;;;;;5004785;28;20247;-59